Time;durP1;ratioP1;P1;durP2;ratioP2;P2;SDS_P1;SDS_P2;PMS_P1;PMS_P2;Temp;Humidity;BMP_temperature;BMP_pressure;BME280_temperature;BME280_humidity;BME280_pressure;Samples;Min_cycle;Max_cycle;Signal;HPM_P1;HPM_P2
2023/08/02 00:00:19;;;;;;;5.50;2.17;;;;;;;14.77;100.00;99462.41;677510;29;1149;-62
2023/08/02 00:00:40;;;;;;;5.70;2.17;;;;;;;14.80;100.00;99465.78;679337;29;909;-62
2023/08/02 00:01:00;;;;;;;7.10;2.40;;;;;;;14.80;100.00;99462.25;679137;29;4401;-63
2023/08/02 00:01:21;;;;;;;7.82;2.50;;;;;;;14.77;100.00;99463.28;678483;29;1086;-62
2023/08/02 00:01:45;;;;;;;6.80;2.33;;;;;;;14.76;100.00;99464.19;678185;29;913;-62
2023/08/02 00:02:06;;;;;;;4.82;2.20;;;;;;;14.74;100.00;99459.91;678689;29;1047;-62
2023/08/02 00:02:26;;;;;;;5.53;2.20;;;;;;;14.74;100.00;99462.53;678281;29;1300;-62
2023/08/02 00:02:46;;;;;;;5.38;2.17;;;;;;;14.74;100.00;99466.00;679554;29;1138;-63
2023/08/02 00:03:07;;;;;;;4.97;2.13;;;;;;;14.73;100.00;99463.44;677724;29;977;-63
2023/08/02 00:03:27;;;;;;;5.28;2.22;;;;;;;14.72;100.00;99464.38;677652;29;1507;-63
2023/08/02 00:03:48;;;;;;;4.93;2.20;;;;;;;14.70;100.00;99461.78;679285;29;4794;-62
2023/08/02 00:04:08;;;;;;;4.80;2.33;;;;;;;14.70;100.00;99458.31;678923;29;1367;-62
2023/08/02 00:04:28;;;;;;;5.95;2.20;;;;;;;14.70;100.00;99458.31;679096;29;992;-62
2023/08/02 00:04:49;;;;;;;7.28;2.35;;;;;;;14.68;100.00;99460.16;679849;29;830;-62
2023/08/02 00:05:10;;;;;;;5.53;2.27;;;;;;;14.68;100.00;99462.78;678564;29;1114;-62
2023/08/02 00:05:31;;;;;;;5.95;2.20;;;;;;;14.69;100.00;99464.47;678791;29;1324;-63
2023/08/02 00:05:56;;;;;;;4.57;2.10;;;;;;;14.67;100.00;99461.06;678680;29;1044;-63
2023/08/02 00:06:16;;;;;;;5.13;2.00;;;;;;;14.67;100.00;99455.81;677636;29;1168;-62
2023/08/02 00:06:36;;;;;;;6.20;2.23;;;;;;;14.66;100.00;99459.34;677682;29;846;-62
2023/08/02 00:06:57;;;;;;;6.77;2.47;;;;;;;14.65;100.00;99463.78;677794;28;4310;-62
2023/08/02 00:07:17;;;;;;;6.82;2.40;;;;;;;14.64;100.00;99460.25;677789;29;1981;-62
2023/08/02 00:07:37;;;;;;;6.03;2.60;;;;;;;14.64;100.00;99462.91;678198;29;997;-63
2023/08/02 00:07:58;;;;;;;4.63;2.17;;;;;;;14.64;100.00;99459.41;678678;29;1703;-62
2023/08/02 00:08:19;;;;;;;4.40;2.03;;;;;;;14.63;100.00;99457.69;680540;28;1158;-62
2023/08/02 00:08:39;;;;;;;5.40;2.20;;;;;;;14.64;100.00;99459.41;680382;29;993;-62
2023/08/02 00:09:00;;;;;;;5.55;2.35;;;;;;;14.61;100.00;99462.16;680174;29;1552;-63
2023/08/02 00:09:20;;;;;;;4.83;2.20;;;;;;;14.60;100.00;99466.53;678964;28;1175;-62
2023/08/02 00:09:40;;;;;;;5.10;2.47;;;;;;;14.59;100.00;99464.84;680930;28;4307;-62
2023/08/02 00:10:03;;;;;;;4.88;2.25;;;;;;;14.59;100.00;99461.34;680562;29;790;-62
2023/08/02 00:10:23;;;;;;;4.97;2.60;;;;;;;14.58;100.00;99463.13;680639;29;1417;-62
2023/08/02 00:10:44;;;;;;;5.88;2.35;;;;;;;14.57;100.00;99456.16;680556;29;802;-62
2023/08/02 00:11:04;;;;;;;6.63;2.33;;;;;;;14.56;100.00;99462.31;677576;29;1015;-62
2023/08/02 00:11:24;;;;;;;4.75;2.10;;;;;;;14.56;100.00;99462.31;678949;29;876;-62
2023/08/02 00:11:45;;;;;;;5.33;2.20;;;;;;;14.55;100.00;99452.75;678345;29;976;-63
2023/08/02 00:12:06;;;;;;;5.43;2.30;;;;;;;14.54;100.00;99458.03;676029;29;1205;-62
2023/08/02 00:12:26;;;;;;;5.60;2.15;;;;;;;14.53;100.00;99464.25;678251;29;1006;-62
2023/08/02 00:12:51;;;;;;;4.97;2.10;;;;;;;14.52;100.00;99452.84;677003;29;4435;-62
2023/08/02 00:13:11;;;;;;;5.35;2.10;;;;;;;14.53;100.00;99457.19;676870;29;979;-62
2023/08/02 00:13:34;;;;;;;5.15;2.15;;;;;;;14.59;100.00;99448.19;679067;29;824;-63
2023/08/02 00:13:56;;;;;;;5.47;2.28;;;;;;;14.58;100.00;99449.97;677939;29;934;-63
2023/08/02 00:14:17;;;;;;;7.20;2.45;;;;;;;14.57;100.00;99453.53;677317;29;1006;-62
2023/08/02 00:14:37;;;;;;;6.57;2.17;;;;;;;14.56;100.00;99454.44;678548;29;1040;-62
2023/08/02 00:14:57;;;;;;;6.13;2.40;;;;;;;14.55;100.00;99442.22;677843;29;829;-62
2023/08/02 00:15:19;;;;;;;6.63;2.70;;;;;;;14.55;100.00;99442.22;676045;29;1196;-62
2023/08/02 00:15:40;;;;;;;5.57;2.45;;;;;;;14.54;100.00;99437.00;678865;29;902;-62
2023/08/02 00:16:01;;;;;;;5.75;2.45;;;;;;;14.52;100.00;99439.69;678007;29;4840;-62
2023/08/02 00:16:21;;;;;;;5.30;2.53;;;;;;;14.51;100.00;99438.00;677484;29;3722;-62
2023/08/02 00:16:42;;;;;;;6.00;2.47;;;;;;;14.50;100.00;99438.91;677907;29;949;-62
2023/08/02 00:17:02;;;;;;;7.25;2.40;;;;;;;14.47;100.00;99445.16;678088;29;1503;-62
2023/08/02 00:17:22;;;;;;;6.70;2.23;;;;;;;14.47;100.00;99441.69;677891;29;1236;-63
2023/08/02 00:17:43;;;;;;;5.33;2.30;;;;;;;14.51;100.00;99435.38;679325;29;884;-62
2023/08/02 00:18:03;;;;;;;5.60;2.30;;;;;;;14.59;100.00;99433.28;678062;29;1517;-62
2023/08/02 00:18:24;;;;;;;5.67;2.37;;;;;;;14.58;100.00;99438.59;678678;29;1192;-62
2023/08/02 00:18:44;;;;;;;5.10;2.30;;;;;;;14.56;100.00;99433.38;678787;29;4316;-63
2023/08/02 00:19:04;;;;;;;4.63;2.07;;;;;;;14.56;100.00;99435.19;676928;29;1744;-63
2023/08/02 00:19:25;;;;;;;6.28;2.25;;;;;;;14.55;100.00;99430.81;678797;29;794;-62
2023/08/02 00:19:45;;;;;;;5.10;2.10;;;;;;;14.54;100.00;99437.00;679734;29;1106;-62
2023/08/02 00:20:06;;;;;;;6.33;2.10;;;;;;;14.53;100.00;99433.53;677809;28;1573;-62
2023/08/02 00:20:27;;;;;;;5.55;2.50;;;;;;;14.54;100.00;99431.75;680089;28;949;-63
2023/08/02 00:20:48;;;;;;;5.57;2.30;;;;;;;14.56;100.00;99430.75;679257;29;763;-63
2023/08/02 00:21:11;;;;;;;5.63;2.28;;;;;;;14.56;100.00;99433.38;680078;28;1714;-63
2023/08/02 00:21:31;;;;;;;5.05;2.08;;;;;;;14.56;100.00;99428.13;679413;28;1123;-63
2023/08/02 00:21:52;;;;;;;6.27;2.10;;;;;;;14.55;100.00;99439.59;678101;29;4455;-63
2023/08/02 00:22:12;;;;;;;7.37;2.37;;;;;;;14.54;100.00;99435.25;677850;29;1722;-62
2023/08/02 00:22:33;;;;;;;5.93;2.17;;;;;;;14.54;100.00;99440.50;676663;29;866;-62
2023/08/02 00:22:53;;;;;;;6.30;2.33;;;;;;;14.53;100.00;99432.69;678909;29;1374;-62
2023/08/02 00:23:14;;;;;;;5.18;2.30;;;;;;;14.52;100.00;99436.22;678305;29;1514;-62
2023/08/02 00:23:34;;;;;;;6.37;2.30;;;;;;;14.51;100.00;99437.13;677859;29;930;-62
2023/08/02 00:23:54;;;;;;;6.50;2.40;;;;;;;14.50;100.00;99435.44;677729;29;1529;-63
2023/08/02 00:24:15;;;;;;;5.27;2.20;;;;;;;14.50;100.00;99433.66;677754;29;1912;-62
2023/08/02 00:24:35;;;;;;;4.95;2.28;;;;;;;14.53;100.00;99438.78;677561;29;1358;-62
2023/08/02 00:24:56;;;;;;;5.40;2.30;;;;;;;14.53;100.00;99433.53;677772;28;4444;-62
2023/08/02 00:25:16;;;;;;;5.60;2.28;;;;;;;14.52;100.00;99430.97;677411;29;2021;-62
2023/08/02 00:25:38;;;;;;;5.30;2.27;;;;;;;14.52;100.00;99439.69;677016;29;937;-62
2023/08/02 00:25:59;;;;;;;5.30;2.10;;;;;;;14.51;100.00;99442.38;678280;29;890;-62
2023/08/02 00:26:19;;;;;;;5.85;2.20;;;;;;;14.49;100.00;99447.72;677282;29;1953;-62
2023/08/02 00:26:39;;;;;;;6.47;2.30;;;;;;;14.47;100.00;99434.63;677968;29;1339;-63
2023/08/02 00:27:00;;;;;;;6.00;2.27;;;;;;;14.48;100.00;99440.72;678740;29;854;-62
2023/08/02 00:27:20;;;;;;;5.55;2.10;;;;;;;14.48;100.00;99440.72;680561;28;1915;-62
2023/08/02 00:27:40;;;;;;;4.97;2.10;;;;;;;14.47;100.00;99431.16;681205;28;4416;-63
2023/08/02 00:28:01;;;;;;;4.97;2.03;;;;;;;14.47;100.00;99431.16;679311;28;1095;-62
2023/08/02 00:28:21;;;;;;;7.45;2.25;;;;;;;14.50;100.00;99428.41;679113;29;1268;-62
2023/08/02 00:28:41;;;;;;;7.00;2.27;;;;;;;14.51;100.00;99429.25;677997;29;913;-62
2023/08/02 00:29:02;;;;;;;5.45;2.08;;;;;;;14.50;100.00;99427.56;677359;29;1169;-62
2023/08/02 00:29:23;;;;;;;6.25;2.40;;;;;;;14.49;100.00;99431.94;675841;29;1783;-62
2023/08/02 00:29:45;;;;;;;5.00;2.17;;;;;;;14.52;100.00;99426.53;677116;29;1284;-62
2023/08/02 00:30:06;;;;;;;4.93;2.05;;;;;;;14.52;100.00;99431.81;678060;29;1502;-62
2023/08/02 00:30:30;;;;;;;4.82;2.08;;;;;;;14.55;100.00;99431.69;678870;29;831;-62
2023/08/02 00:30:51;;;;;;;5.60;1.98;;;;;;;14.54;100.00;99435.25;678222;29;5361;-62
2023/08/02 00:31:11;;;;;;;4.77;2.00;;;;;;;14.53;100.00;99432.69;678942;29;2085;-62
2023/08/02 00:31:32;;;;;;;5.43;2.07;;;;;;;14.54;100.00;99431.75;680190;29;1107;-62
2023/08/02 00:31:53;;;;;;;6.32;2.03;;;;;;;14.55;100.00;99436.09;680727;29;1221;-62
2023/08/02 00:32:13;;;;;;;5.70;2.07;;;;;;;14.53;100.00;99425.63;679502;29;1020;-62
2023/08/02 00:32:42;;;;;;;4.50;1.80;;;;;;;14.51;100.00;99435.38;680784;28;1545;-62
2023/08/02 00:33:02;;;;;;;3.83;1.80;;;;;;;14.50;100.00;99435.44;679180;29;817;-62
2023/08/02 00:33:22;;;;;;;4.05;2.00;;;;;;;14.49;100.00;99434.56;678942;29;1722;-62
2023/08/02 00:33:44;;;;;;;4.87;2.03;;;;;;;14.46;100.00;99438.16;678768;29;4763;-62
2023/08/02 00:34:05;;;;;;;4.20;2.15;;;;;;;14.45;100.00;99435.59;672724;29;1707;-62
2023/08/02 00:34:26;;;;;;;4.93;1.90;;;;;;;14.42;100.00;99431.31;677180;29;853;-62
2023/08/02 00:34:49;;;;;;;4.85;1.90;;;;;;;14.46;100.00;99430.28;677327;29;1126;-62
2023/08/02 00:35:10;;;;;;;4.75;1.92;;;;;;;14.47;100.00;99439.03;677050;29;3145;-62
2023/08/02 00:35:30;;;;;;;3.77;1.70;;;;;;;14.47;100.00;99428.53;679087;29;783;-62
2023/08/02 00:35:50;;;;;;;5.05;2.30;;;;;;;14.48;100.00;99435.47;679739;29;888;-63
2023/08/02 00:36:11;;;;;;;4.93;2.27;;;;;;;14.49;100.00;99431.94;676341;29;1526;-62
2023/08/02 00:36:31;;;;;;;5.57;1.80;;;;;;;14.47;100.00;99439.03;678641;29;989;-62
2023/08/02 00:36:52;;;;;;;7.20;1.73;;;;;;;14.45;100.00;99435.59;679863;28;4581;-62
2023/08/02 00:37:12;;;;;;;5.95;1.90;;;;;;;14.45;100.00;99438.22;677492;29;2100;-63
2023/08/02 00:37:33;;;;;;;5.93;2.20;;;;;;;14.44;100.00;99433.88;678916;29;936;-62
2023/08/02 00:37:53;;;;;;;5.30;2.13;;;;;;;14.42;100.00;99433.94;678714;29;925;-63
2023/08/02 00:38:14;;;;;;;4.87;1.97;;;;;;;14.43;100.00;99432.19;676531;29;2082;-62
2023/08/02 00:38:34;;;;;;;4.85;1.70;;;;;;;14.44;100.00;99434.75;673986;29;1190;-62
2023/08/02 00:38:54;;;;;;;4.77;1.90;;;;;;;14.45;100.00;99438.22;677776;29;5395;-63
2023/08/02 00:39:15;;;;;;;5.07;1.87;;;;;;;14.44;100.00;99426.88;674029;29;1505;-62
2023/08/02 00:39:35;;;;;;;5.28;2.00;;;;;;;14.45;100.00;99422.47;678310;29;932;-62
2023/08/02 00:39:55;;;;;;;4.57;2.00;;;;;;;14.43;100.00;99425.16;673060;29;4540;-62
2023/08/02 00:40:18;;;;;;;4.20;1.63;;;;;;;14.44;100.00;99433.88;669284;29;1945;-62
2023/08/02 00:40:39;;;;;;;4.43;1.70;;;;;;;14.45;100.00;99425.09;673263;29;917;-62
2023/08/02 00:41:06;;;;;;;5.80;1.95;;;;;;;14.48;100.00;99422.31;674101;29;865;-62
2023/08/02 00:41:27;;;;;;;5.50;1.95;;;;;;;14.51;100.00;99423.97;676641;29;898;-62
2023/08/02 00:41:47;;;;;;;5.50;1.90;;;;;;;14.51;100.00;99418.72;678144;29;1043;-63
2023/08/02 00:42:07;;;;;;;5.63;1.90;;;;;;;14.47;100.00;99429.38;678200;28;1739;-62
2023/08/02 00:42:28;;;;;;;5.03;1.80;;;;;;;14.48;100.00;99424.97;675633;29;1361;-62
2023/08/02 00:42:48;;;;;;;5.47;1.67;;;;;;;14.48;100.00;99422.31;675608;29;4452;-62
2023/08/02 00:43:09;;;;;;;5.43;1.80;;;;;;;14.46;100.00;99422.41;671214;29;1813;-62
2023/08/02 00:43:37;;;;;;;4.97;1.73;;;;;;;14.45;100.00;99425.97;672416;29;1040;-62
2023/08/02 00:43:58;;;;;;;4.43;1.90;;;;;;;14.45;100.00;99427.72;672226;29;1420;-62
2023/08/02 00:44:19;;;;;;;4.93;1.65;;;;;;;14.49;100.00;99424.03;672751;29;1439;-63
2023/08/02 00:44:39;;;;;;;4.63;1.70;;;;;;;14.55;100.00;99420.31;673880;29;983;-63
2023/08/02 00:44:59;;;;;;;3.53;1.52;;;;;;;14.54;100.00;99429.09;677253;29;1418;-62
2023/08/02 00:45:20;;;;;;;4.03;1.70;;;;;;;14.53;100.00;99425.63;677696;29;1943;-63
2023/08/02 00:45:40;;;;;;;4.50;1.60;;;;;;;14.52;100.00;99430.97;676682;29;921;-62
2023/08/02 00:46:01;;;;;;;4.80;1.55;;;;;;;14.51;100.00;99424.84;672451;29;6033;-62
2023/08/02 00:46:21;;;;;;;4.37;1.70;;;;;;;14.50;100.00;99433.66;673878;29;1955;-63
2023/08/02 00:46:42;;;;;;;4.72;1.80;;;;;;;14.47;100.00;99428.53;675612;29;997;-62
2023/08/02 00:47:02;;;;;;;4.47;1.90;;;;;;;14.48;100.00;99432.84;675592;29;940;-62
2023/08/02 00:47:24;;;;;;;5.03;1.83;;;;;;;14.47;100.00;99431.16;676239;29;2241;-63
2023/08/02 00:47:44;;;;;;;5.43;1.70;;;;;;;14.48;100.00;99427.59;678648;29;1973;-62
2023/08/02 00:48:05;;;;;;;4.57;1.80;;;;;;;14.47;100.00;99424.13;677246;28;1939;-63
2023/08/02 00:48:26;;;;;;;5.00;2.05;;;;;;;14.46;100.00;99419.75;681648;28;1458;-63
2023/08/02 00:48:47;;;;;;;4.60;1.90;;;;;;;14.46;100.00;99427.66;679379;28;4570;-63
2023/08/02 00:49:10;;;;;;;4.63;1.98;;;;;;;14.46;100.00;99432.91;679143;28;1779;-62
2023/08/02 00:49:30;;;;;;;3.83;1.90;;;;;;;14.47;100.00;99431.16;680672;29;821;-62
2023/08/02 00:49:52;;;;;;;4.63;1.60;;;;;;;14.47;100.00;99428.53;677995;29;947;-62
2023/08/02 00:50:13;;;;;;;4.70;1.77;;;;;;;14.47;100.00;99432.00;677445;29;1468;-62
2023/08/02 00:50:35;;;;;;;4.75;1.75;;;;;;;14.46;100.00;99430.28;678157;29;881;-63
2023/08/02 00:50:56;;;;;;;4.47;1.90;;;;;;;14.49;100.00;99426.69;678047;29;980;-62
2023/08/02 00:51:20;;;;;;;3.88;1.77;;;;;;;14.51;100.00;99426.59;677912;29;1787;-62
2023/08/02 00:51:40;;;;;;;3.85;1.70;;;;;;;14.51;100.00;99429.25;674951;29;922;-62
2023/08/02 00:52:00;;;;;;;5.07;1.77;;;;;;;14.51;100.00;99424.84;674892;29;4892;-62
2023/08/02 00:52:21;;;;;;;5.78;1.92;;;;;;;14.54;100.00;99429.97;674169;29;1862;-62
2023/08/02 00:52:44;;;;;;;6.00;2.20;;;;;;;14.56;100.00;99425.50;675311;29;1441;-62
2023/08/02 00:53:05;;;;;;;5.32;1.73;;;;;;;14.57;100.00;99423.75;672395;29;1614;-63
2023/08/02 00:53:27;;;;;;;4.50;1.70;;;;;;;14.59;100.00;99421.91;674707;29;923;-62
2023/08/02 00:53:47;;;;;;;3.83;1.60;;;;;;;14.57;100.00;99424.59;676576;29;1390;-63
2023/08/02 00:54:08;;;;;;;4.95;1.70;;;;;;;14.56;100.00;99422.03;674639;29;2562;-62
2023/08/02 00:54:28;;;;;;;5.05;1.80;;;;;;;14.55;100.00;99420.31;674299;29;1186;-62
2023/08/02 00:54:50;;;;;;;5.53;1.80;;;;;;;14.55;100.00;99421.19;676016;29;4426;-63
2023/08/02 00:55:10;;;;;;;5.00;1.70;;;;;;;14.52;100.00;99412.56;674815;29;2209;-62
2023/08/02 00:55:30;;;;;;;6.15;2.05;;;;;;;14.52;100.00;99415.19;676411;29;1408;-62
2023/08/02 00:55:54;;;;;;;4.85;2.05;;;;;;;14.53;100.00;99412.47;676654;29;929;-62
2023/08/02 00:56:15;;;;;;;4.47;1.83;;;;;;;14.52;100.00;99410.75;678951;29;1963;-62
2023/08/02 00:56:36;;;;;;;6.00;1.77;;;;;;;14.53;100.00;99411.63;679453;29;846;-62
2023/08/02 00:56:56;;;;;;;6.68;1.90;;;;;;;14.53;100.00;99409.00;677014;29;1821;-63
2023/08/02 00:57:17;;;;;;;5.30;1.90;;;;;;;14.51;100.00;99405.56;676833;29;1799;-62
2023/08/02 00:57:37;;;;;;;4.20;1.75;;;;;;;14.50;100.00;99411.78;678261;29;1046;-63
2023/08/02 00:57:59;;;;;;;4.03;1.80;;;;;;;14.46;100.00;99403.16;673781;29;4434;-63
2023/08/02 00:58:19;;;;;;;5.05;1.73;;;;;;;14.46;100.00;99405.78;674502;29;1787;-63
2023/08/02 00:58:40;;;;;;;4.83;1.60;;;;;;;14.45;100.00;99404.94;676686;29;1197;-62
2023/08/02 00:59:00;;;;;;;4.93;1.70;;;;;;;14.44;100.00;99408.47;678653;29;882;-62
2023/08/02 00:59:21;;;;;;;4.97;1.80;;;;;;;14.44;100.00;99407.59;676255;29;1284;-61
2023/08/02 00:59:41;;;;;;;6.32;1.92;;;;;;;14.44;100.00;99408.47;677377;29;973;-62
2023/08/02 01:00:02;;;;;;;6.87;1.90;;;;;;;14.50;100.00;99404.72;678238;29;988;-62
2023/08/02 01:00:23;;;;;;;5.13;2.00;;;;;;;14.47;100.00;99402.22;676685;29;1923;-60
2023/08/02 01:00:43;;;;;;;5.10;2.00;;;;;;;14.47;100.00;99404.88;678272;29;4421;-63
2023/08/02 01:01:07;;;;;;;4.53;1.80;;;;;;;14.44;100.00;99416.34;677889;29;1486;-62
2023/08/02 01:01:27;;;;;;;5.55;1.88;;;;;;;14.44;100.00;99415.47;678767;29;874;-63
2023/08/02 01:01:48;;;;;;;5.25;2.20;;;;;;;14.41;100.00;99413.84;678087;29;989;-63
2023/08/02 01:02:09;;;;;;;5.17;2.07;;;;;;;14.38;100.00;99413.97;678351;29;2300;-62
2023/08/02 01:02:29;;;;;;;4.32;1.75;;;;;;;14.36;100.00;99420.19;680263;28;1192;-65
2023/08/02 01:02:50;;;;;;;4.93;2.00;;;;;;;14.32;100.00;99414.22;678928;29;1291;-62
2023/08/02 01:03:10;;;;;;;4.70;1.80;;;;;;;14.33;100.00;99420.31;675060;29;1845;-62
2023/08/02 01:03:31;;;;;;;4.60;1.83;;;;;;;14.31;100.00;99410.72;676630;29;1385;-62
2023/08/02 01:03:52;;;;;;;5.03;2.00;;;;;;;14.34;100.00;99414.16;675632;29;4388;-62
2023/08/02 01:04:15;;;;;;;4.05;1.75;;;;;;;14.34;100.00;99419.41;673820;29;2210;-63
2023/08/02 01:04:37;;;;;;;3.80;2.00;;;;;;;14.32;100.00;99414.22;676859;29;968;-62
2023/08/02 01:04:58;;;;;;;4.35;1.88;;;;;;;14.28;100.00;99413.47;677711;29;870;-62
2023/08/02 01:05:23;;;;;;;4.53;1.90;;;;;;;14.26;100.00;99415.31;676843;29;1960;-63
2023/08/02 01:05:51;;;;;;;4.30;1.90;;;;;;;14.25;100.00;99416.22;677290;29;1469;-62
2023/08/02 01:06:36;;;;;;;4.32;2.00;;;;;;;14.27;100.00;99421.44;673458;29;2594;-62
2023/08/02 01:07:03;;;;;;;4.22;1.80;;;;;;;14.23;100.00;99415.47;673615;29;4513;-62
2023/08/02 01:07:37;;;;;;;5.85;1.80;;;;;;;14.19;100.00;99416.50;671432;29;1970;-62
2023/08/02 01:08:07;;;;;;;4.68;2.00;;;;;;;14.18;100.00;99420.03;676538;29;1213;-62
2023/08/02 01:08:35;;;;;;;4.30;1.95;;;;;;;14.21;100.00;99412.00;675595;29;1237;-62
2023/08/02 01:09:07;;;;;;;4.85;2.00;;;;;;;14.28;100.00;99417.88;676082;29;961;-62
2023/08/02 01:09:35;;;;;;;4.22;1.88;;;;;;;14.37;100.00;99414.91;680852;29;1001;-63
2023/08/02 01:10:09;;;;;;;3.85;1.80;;;;;;;14.29;100.00;99412.56;679034;29;4441;-62
2023/08/02 01:10:34;;;;;;;4.20;1.80;;;;;;;14.23;100.00;99415.47;681416;29;933;-62
2023/08/02 01:11:09;;;;;;;5.97;2.00;;;;;;;14.23;100.00;99415.47;681706;29;888;-62
2023/08/02 01:11:44;;;;;;;5.90;1.88;;;;;;;14.22;100.00;99412.84;681918;29;1363;-62
2023/08/02 01:12:10;;;;;;;5.15;1.95;;;;;;;14.19;100.00;99411.25;679909;28;1937;-63
2023/08/02 01:12:34;;;;;;;4.97;1.92;;;;;;;14.16;100.00;99411.34;676847;29;3908;-62
2023/08/02 01:12:55;;;;;;;5.13;2.08;;;;;;;14.19;100.00;99411.25;678511;29;4379;-63
2023/08/02 01:13:18;;;;;;;5.85;1.95;;;;;;;14.19;100.00;99405.09;677647;29;1394;-63
2023/08/02 01:13:45;;;;;;;6.10;2.30;;;;;;;14.19;100.00;99407.72;679619;29;953;-61
2023/08/02 01:14:07;;;;;;;5.28;1.92;;;;;;;14.18;100.00;99403.38;676701;29;1950;-61
2023/08/02 01:14:30;;;;;;;5.35;1.98;;;;;;;14.18;100.00;99401.63;679223;29;1414;-61
2023/08/02 01:14:55;;;;;;;5.20;1.88;;;;;;;14.34;100.00;99395.75;678725;29;1557;-61
2023/08/02 01:15:16;;;;;;;5.85;2.08;;;;;;;14.31;100.00;99397.56;675817;29;1738;-63
2023/08/02 01:15:37;;;;;;;4.53;1.90;;;;;;;14.31;100.00;99400.19;681110;29;893;-63
2023/08/02 01:15:59;;;;;;;4.28;1.70;;;;;;;14.29;100.00;99398.56;680412;28;4429;-63
2023/08/02 01:16:20;;;;;;;5.22;1.90;;;;;;;14.25;100.00;99394.38;677750;29;1748;-63
2023/08/02 01:16:40;;;;;;;4.78;1.80;;;;;;;14.23;100.00;99394.44;677874;29;960;-63
2023/08/02 01:17:03;;;;;;;4.10;1.67;;;;;;;14.18;100.00;99391.13;677918;29;850;-63
2023/08/02 01:17:25;;;;;;;4.68;1.67;;;;;;;14.17;100.00;99397.28;676544;29;1851;-63
2023/08/02 01:17:46;;;;;;;3.78;1.60;;;;;;;14.14;100.00;99393.00;678200;29;922;-62
2023/08/02 01:18:08;;;;;;;5.30;1.80;;;;;;;14.13;100.00;99393.91;676661;28;1649;-63
2023/08/02 01:18:29;;;;;;;5.40;1.88;;;;;;;14.11;100.00;99392.28;681326;29;1137;-62
2023/08/02 01:18:50;;;;;;;3.90;1.65;;;;;;;14.08;100.00;99395.00;679605;28;4362;-62
2023/08/02 01:19:11;;;;;;;4.72;1.90;;;;;;;14.07;100.00;99385.44;679200;28;1493;-63
2023/08/02 01:19:32;;;;;;;5.65;1.80;;;;;;;14.07;100.00;99391.53;679971;29;976;-61
2023/08/02 01:19:52;;;;;;;4.28;1.77;;;;;;;14.07;100.00;99391.53;678783;29;1360;-60
2023/08/02 01:20:13;;;;;;;4.83;1.60;;;;;;;14.06;100.00;99386.34;676222;29;1031;-63
2023/08/02 01:20:33;;;;;;;5.07;1.73;;;;;;;14.03;100.00;99382.06;677630;29;937;-63
2023/08/02 01:20:54;;;;;;;5.57;1.90;;;;;;;14.02;100.00;99380.34;676810;29;930;-63
2023/08/02 01:21:14;;;;;;;7.00;2.20;;;;;;;14.02;100.00;99382.13;677264;29;2427;-63
2023/08/02 01:21:35;;;;;;;4.83;2.10;;;;;;;14.02;100.00;99382.13;675485;29;1500;-62
2023/08/02 01:21:55;;;;;;;4.72;1.90;;;;;;;14.03;100.00;99389.09;677135;29;5213;-63
2023/08/02 01:22:17;;;;;;;4.18;2.00;;;;;;;14.01;100.00;99389.16;677586;29;1896;-61
2023/08/02 01:22:37;;;;;;;5.43;2.20;;;;;;;14.02;100.00;99385.59;676204;29;818;-61
2023/08/02 01:22:57;;;;;;;4.67;1.90;;;;;;;14.01;100.00;99383.91;676106;29;1267;-63
2023/08/02 01:23:20;;;;;;;4.87;1.90;;;;;;;14.01;100.00;99386.53;672819;29;1917;-63
2023/08/02 01:23:42;;;;;;;4.20;1.85;;;;;;;14.00;100.00;99386.56;675639;29;833;-63
2023/08/02 01:24:04;;;;;;;4.80;1.90;;;;;;;13.96;100.00;99383.22;676360;29;1286;-64
2023/08/02 01:24:31;;;;;;;4.93;1.90;;;;;;;13.92;100.00;99374.59;675469;29;1738;-61
2023/08/02 01:24:51;;;;;;;4.70;1.92;;;;;;;13.94;100.00;99382.41;676085;29;4423;-61
2023/08/02 01:25:12;;;;;;;5.73;2.00;;;;;;;13.95;100.00;99379.72;674922;29;1135;-61
2023/08/02 01:25:33;;;;;;;4.97;1.98;;;;;;;13.95;100.00;99382.34;675582;29;1112;-63
2023/08/02 01:25:59;;;;;;;4.30;2.00;;;;;;;13.96;100.00;99375.34;676123;29;931;-63
2023/08/02 01:26:21;;;;;;;4.10;1.70;;;;;;;14.02;100.00;99374.25;674220;29;1942;-63
2023/08/02 01:26:45;;;;;;;4.38;1.95;;;;;;;14.03;100.00;99376.81;674518;29;953;-63
2023/08/02 01:27:13;;;;;;;5.90;2.08;;;;;;;14.01;100.00;99376.03;674855;29;1855;-62
2023/08/02 01:27:48;;;;;;;5.03;1.80;;;;;;;14.00;100.00;99374.31;676616;29;1978;-62
2023/08/02 01:28:16;;;;;;;5.50;2.40;;;;;;;13.99;100.00;99383.09;675482;29;7412;-62
2023/08/02 01:28:43;;;;;;;5.85;1.90;;;;;;;13.96;100.00;99381.44;677674;29;908;-63
2023/08/02 01:29:08;;;;;;;4.38;1.85;;;;;;;13.96;100.00;99380.59;676344;29;909;-62
2023/08/02 01:29:30;;;;;;;3.95;1.80;;;;;;;13.94;100.00;99377.16;673237;29;1990;-63
2023/08/02 01:29:52;;;;;;;5.13;1.98;;;;;;;13.94;100.00;99378.03;673626;29;992;-63
2023/08/02 01:30:16;;;;;;;5.97;2.10;;;;;;;13.95;100.00;99376.25;673360;29;1547;-63
2023/08/02 01:30:38;;;;;;;5.93;1.88;;;;;;;13.96;100.00;99377.97;677044;29;929;-63
2023/08/02 01:31:00;;;;;;;5.57;2.00;;;;;;;13.95;100.00;99377.09;676638;29;4326;-62
2023/08/02 01:31:22;;;;;;;5.05;1.90;;;;;;;13.94;100.00;99378.03;677512;29;3120;-62
2023/08/02 01:31:43;;;;;;;5.78;2.03;;;;;;;13.94;100.00;99372.78;677224;29;2052;-63
2023/08/02 01:32:06;;;;;;;4.47;1.58;;;;;;;13.94;100.00;99378.03;677585;29;1396;-63
2023/08/02 01:32:27;;;;;;;5.78;1.80;;;;;;;13.93;100.00;99373.69;679602;29;963;-62
2023/08/02 01:32:47;;;;;;;4.28;1.80;;;;;;;13.95;100.00;99379.72;678657;29;1327;-62
2023/08/02 01:33:10;;;;;;;4.30;1.83;;;;;;;13.94;100.00;99370.16;679823;29;1001;-62
2023/08/02 01:33:39;;;;;;;4.18;1.80;;;;;;;13.94;100.00;99383.28;681003;28;1146;-62
2023/08/02 01:34:03;;;;;;;6.45;2.10;;;;;;;13.92;100.00;99379.84;678209;29;4478;-62
2023/08/02 01:34:24;;;;;;;6.22;2.35;;;;;;;13.93;100.00;99373.69;680143;29;1237;-62
2023/08/02 01:34:45;;;;;;;4.28;1.70;;;;;;;13.93;100.00;99376.31;677933;29;790;-63
2023/08/02 01:35:07;;;;;;;4.78;1.92;;;;;;;13.93;100.00;99380.72;677022;29;1994;-63
2023/08/02 01:35:28;;;;;;;3.90;1.83;;;;;;;13.94;100.00;99374.53;680910;29;976;-62
2023/08/02 01:35:49;;;;;;;3.38;1.80;;;;;;;13.94;100.00;99378.03;678935;29;1400;-63
2023/08/02 01:36:10;;;;;;;4.82;2.10;;;;;;;13.93;100.00;99372.84;677927;29;1764;-63
2023/08/02 01:36:31;;;;;;;4.63;1.92;;;;;;;13.94;100.00;99377.16;677866;29;1333;-62
2023/08/02 01:36:51;;;;;;;4.78;1.80;;;;;;;13.93;100.00;99376.31;676126;29;4610;-62
2023/08/02 01:37:12;;;;;;;4.40;1.80;;;;;;;13.94;100.00;99375.41;675181;29;2696;-63
2023/08/02 01:37:35;;;;;;;4.93;1.80;;;;;;;13.93;100.00;99384.19;676584;29;1439;-62
2023/08/02 01:37:57;;;;;;;5.85;1.95;;;;;;;13.92;100.00;99379.84;676078;29;1440;-63
2023/08/02 01:38:17;;;;;;;4.95;2.10;;;;;;;13.95;100.00;99376.25;675816;29;1749;-62
2023/08/02 01:38:38;;;;;;;4.40;1.90;;;;;;;13.96;100.00;99375.34;679747;29;818;-62
2023/08/02 01:38:58;;;;;;;4.93;1.85;;;;;;;13.95;100.00;99379.72;679315;29;5334;-62
2023/08/02 01:39:19;;;;;;;4.60;1.80;;;;;;;13.96;100.00;99376.19;679789;28;2305;-62
2023/08/02 01:39:39;;;;;;;4.47;1.88;;;;;;;13.98;100.00;99373.50;676782;29;2279;-62
2023/08/02 01:40:00;;;;;;;4.30;2.00;;;;;;;14.00;100.00;99381.31;681278;28;4409;-63
2023/08/02 01:40:23;;;;;;;4.13;1.67;;;;;;;14.01;100.00;99376.03;677696;29;1236;-62
2023/08/02 01:40:45;;;;;;;4.65;1.80;;;;;;;14.02;100.00;99380.34;675992;29;1107;-62
2023/08/02 01:41:06;;;;;;;3.97;1.90;;;;;;;14.04;100.00;99381.16;672945;29;2995;-63
2023/08/02 01:41:26;;;;;;;4.10;1.88;;;;;;;14.06;100.00;99375.84;673697;29;934;-62
2023/08/02 01:41:47;;;;;;;5.10;1.90;;;;;;;14.06;100.00;99370.59;674053;29;1000;-62
2023/08/02 01:42:10;;;;;;;4.88;2.00;;;;;;;14.05;100.00;99377.63;673651;29;1515;-62
2023/08/02 01:42:31;;;;;;;4.38;1.80;;;;;;;14.06;100.00;99379.31;676660;29;1553;-62
2023/08/02 01:42:51;;;;;;;4.38;1.70;;;;;;;14.06;100.00;99379.31;677880;29;4575;-62
2023/08/02 01:43:14;;;;;;;4.37;1.70;;;;;;;14.08;100.00;99374.00;681262;28;2348;-62
2023/08/02 01:43:37;;;;;;;4.65;1.60;;;;;;;14.06;100.00;99376.69;681109;28;969;-62
2023/08/02 01:44:00;;;;;;;4.53;1.80;;;;;;;14.07;100.00;99375.78;678777;29;1240;-62
2023/08/02 01:44:21;;;;;;;4.25;1.83;;;;;;;14.08;100.00;99379.25;672151;29;1843;-62